Time;durP1;ratioP1;P1;durP2;ratioP2;P2;SDS_P1;SDS_P2;PMS_P1;PMS_P2;Temp;Humidity;BMP_temperature;BMP_pressure;BME280_temperature;BME280_humidity;BME280_pressure;Samples;Min_cycle;Max_cycle;Signal;HPM_P1;HPM_P2
2022/07/27 00:00:29;;;;;;;;;;;14.30;99.90;;;;;;5064040;28;19931;-77
2022/07/27 00:02:55;;;;;;;;;;;14.30;99.90;;;;;;5093520;28;19927;-77
2022/07/27 00:05:22;;;;;;;;;;;14.40;99.90;;;;;;5093611;28;19973;-77
2022/07/27 00:07:47;;;;;;;;;;;14.30;99.90;;;;;;5126759;27;19965;-77
2022/07/27 00:10:13;;;;;;;;;;;14.30;99.90;;;;;;5072791;28;19916;-77
2022/07/27 00:12:39;;;;;;;;;;;14.30;99.90;;;;;;5090899;28;19920;-77
2022/07/27 00:15:05;;;;;;;;;;;14.30;99.90;;;;;;5083668;28;19966;-77
2022/07/27 00:17:30;;;;;;;;;;;14.40;99.90;;;;;;5093226;28;19927;-77
2022/07/27 00:19:56;;;;;;;;;;;14.30;99.90;;;;;;5118254;27;19920;-77
2022/07/27 00:22:21;;;;;;;;;;;14.40;99.90;;;;;;5082860;28;19916;-77
2022/07/27 00:24:47;;;;;;;;;;;14.40;99.90;;;;;;5093171;28;20035;-77
2022/07/27 00:27:13;;;;;;;;;;;14.40;99.90;;;;;;5076253;28;19919;-77
2022/07/27 00:29:39;;;;;;;;;;;14.40;99.90;;;;;;5099439;28;19956;-76
2022/07/27 00:32:05;;;;;;;;;;;14.40;99.90;;;;;;5091467;28;20351;-76
2022/07/27 00:34:30;;;;;;;;;;;14.40;99.90;;;;;;5092026;28;19920;-77
2022/07/27 00:36:56;;;;;;;;;;;14.40;99.90;;;;;;5125803;28;19927;-76
2022/07/27 00:39:21;;;;;;;;;;;14.30;99.90;;;;;;5121478;28;19919;-76
2022/07/27 00:41:47;;;;;;;;;;;14.30;99.90;;;;;;5091473;28;19920;-76
2022/07/27 00:44:12;;;;;;;;;;;14.30;99.90;;;;;;5123504;27;19970;-77
2022/07/27 00:46:38;;;;;;;;;;;14.20;99.90;;;;;;5085183;28;20366;-76
2022/07/27 00:49:04;;;;;;;;;;;14.20;99.90;;;;;;5121743;28;19916;-77
2022/07/27 00:51:31;;;;;;;;;;;14.10;99.90;;;;;;5069129;28;19917;-77
2022/07/27 00:53:56;;;;;;;;;;;14.00;99.90;;;;;;5089224;28;19924;-77
2022/07/27 00:56:22;;;;;;;;;;;14.00;99.90;;;;;;5091457;28;19924;-76
2022/07/27 00:58:49;;;;;;;;;;;13.90;99.90;;;;;;5086172;28;19917;-77
2022/07/27 01:01:15;;;;;;;;;;;13.90;99.90;;;;;;5091196;28;19920;-77
2022/07/27 01:03:41;;;;;;;;;;;13.90;99.90;;;;;;5080112;28;20007;-77
2022/07/27 01:06:06;;;;;;;;;;;13.90;99.90;;;;;;5091081;28;19999;-76
2022/07/27 01:08:32;;;;;;;;;;;13.80;99.90;;;;;;5077833;28;20030;-77
2022/07/27 01:10:58;;;;;;;;;;;13.80;99.90;;;;;;5106105;28;20429;-76
2022/07/27 01:13:24;;;;;;;;;;;13.80;99.90;;;;;;5091320;28;19967;-77
2022/07/27 01:15:50;;;;;;;;;;;13.80;99.90;;;;;;5091173;28;19923;-77
2022/07/27 01:18:27;;;;;;;;;;;13.80;99.90;;;;;;5089498;28;19920;-77
2022/07/27 01:20:53;;;;;;;;;;;13.80;99.90;;;;;;5116322;28;19963;-76
2022/07/27 01:23:18;;;;;;;;;;;13.80;99.90;;;;;;5090925;28;19962;-76
2022/07/27 01:25:44;;;;;;;;;;;13.80;99.90;;;;;;5125163;28;19919;-77
2022/07/27 01:28:09;;;;;;;;;;;13.80;99.90;;;;;;5121896;28;19935;-76
2022/07/27 01:30:35;;;;;;;;;;;13.90;99.90;;;;;;5070220;28;1077795;-76
2022/07/27 01:33:04;;;;;;;;;;;13.80;99.90;;;;;;5126288;27;20014;-76
2022/07/27 01:35:30;;;;;;;;;;;13.80;99.90;;;;;;5091769;28;19924;-76
2022/07/27 01:37:56;;;;;;;;;;;13.80;99.90;;;;;;5089651;28;19985;-76
2022/07/27 01:40:22;;;;;;;;;;;13.90;99.90;;;;;;5123673;27;20346;-76
2022/07/27 01:42:48;;;;;;;;;;;13.80;99.90;;;;;;5085278;28;20014;-76
2022/07/27 01:45:14;;;;;;;;;;;13.90;99.90;;;;;;5087645;28;19919;-76
2022/07/27 01:47:39;;;;;;;;;;;13.80;99.90;;;;;;5108293;28;19927;-76
2022/07/27 01:50:05;;;;;;;;;;;13.80;99.90;;;;;;5085721;28;19919;-77
2022/07/27 01:52:31;;;;;;;;;;;13.80;99.90;;;;;;5085624;28;19920;-76
2022/07/27 01:54:56;;;;;;;;;;;13.70;99.90;;;;;;5117113;27;20282;-76
2022/07/27 01:57:22;;;;;;;;;;;13.70;99.90;;;;;;5124420;27;19920;-76
2022/07/27 01:59:47;;;;;;;;;;;13.60;99.90;;;;;;5101785;28;20587;-76
2022/07/27 02:02:14;;;;;;;;;;;13.60;99.90;;;;;;5105446;27;19920;-76
2022/07/27 02:04:40;;;;;;;;;;;13.50;99.90;;;;;;5092831;28;19927;-76
2022/07/27 02:07:06;;;;;;;;;;;13.50;99.90;;;;;;5085077;28;19916;-77
2022/07/27 02:09:32;;;;;;;;;;;13.50;99.90;;;;;;5095411;28;19966;-76
2022/07/27 02:14:42;;;;;;;;;;;13.40;99.90;;;;;;5083782;28;19923;-77
2022/07/27 02:17:07;;;;;;;;;;;13.40;99.90;;;;;;5078933;28;19920;-76
2022/07/27 02:19:33;;;;;;;;;;;13.40;99.90;;;;;;5123078;27;20000;-77
2022/07/27 02:21:58;;;;;;;;;;;13.30;99.90;;;;;;5118242;27;19927;-77
2022/07/27 02:24:24;;;;;;;;;;;13.30;99.90;;;;;;5087578;28;19927;-76
2022/07/27 02:26:49;;;;;;;;;;;13.20;99.90;;;;;;5089419;28;19920;-76
2022/07/27 02:29:15;;;;;;;;;;;13.20;99.90;;;;;;5104878;28;19927;-76
2022/07/27 02:31:40;;;;;;;;;;;13.10;99.90;;;;;;5124513;27;20390;-76
2022/07/27 02:34:06;;;;;;;;;;;13.10;99.90;;;;;;5125101;27;19995;-76
2022/07/27 02:36:31;;;;;;;;;;;13.10;99.90;;;;;;5090309;28;19924;-76
2022/07/27 02:38:57;;;;;;;;;;;13.10;99.90;;;;;;5113572;27;19951;-77
2022/07/27 02:41:23;;;;;;;;;;;13.10;99.90;;;;;;5090428;28;19919;-77
2022/07/27 02:43:48;;;;;;;;;;;13.20;99.90;;;;;;5090033;28;20009;-76
2022/07/27 02:46:14;;;;;;;;;;;13.20;99.90;;;;;;5089290;28;20054;-76
2022/07/27 02:48:40;;;;;;;;;;;13.20;99.90;;;;;;5070605;28;19965;-77
2022/07/27 02:51:05;;;;;;;;;;;13.30;99.90;;;;;;5084815;28;19919;-77
2022/07/27 02:53:31;;;;;;;;;;;13.30;99.90;;;;;;5124813;27;19920;-76
2022/07/27 02:55:56;;;;;;;;;;;13.30;99.90;;;;;;5089847;28;20021;-76
2022/07/27 02:58:22;;;;;;;;;;;13.30;99.90;;;;;;5119184;27;20015;-76
2022/07/27 03:00:48;;;;;;;;;;;13.40;99.90;;;;;;5097304;28;19939;-76
2022/07/27 03:03:14;;;;;;;;;;;13.40;99.90;;;;;;5124321;27;20020;-76
2022/07/27 03:05:39;;;;;;;;;;;13.40;99.90;;;;;;5090141;28;20339;-76
2022/07/27 03:08:05;;;;;;;;;;;13.40;99.90;;;;;;5109766;27;19920;-76
2022/07/27 03:10:30;;;;;;;;;;;13.40;99.90;;;;;;5079794;28;19920;-77
2022/07/27 03:12:56;;;;;;;;;;;13.50;99.90;;;;;;5089996;28;19924;-77
2022/07/27 03:15:22;;;;;;;;;;;13.50;99.90;;;;;;5089881;28;19915;-77
2022/07/27 03:17:48;;;;;;;;;;;13.50;99.90;;;;;;5073153;28;19916;-77
2022/07/27 03:20:13;;;;;;;;;;;13.50;99.90;;;;;;5120057;28;19939;-77
2022/07/27 03:22:39;;;;;;;;;;;13.50;99.90;;;;;;5124115;28;19963;-77
2022/07/27 03:25:05;;;;;;;;;;;13.50;99.90;;;;;;5089842;28;19977;-76
2022/07/27 03:27:30;;;;;;;;;;;13.50;99.90;;;;;;5084686;28;19926;-77
2022/07/27 03:29:56;;;;;;;;;;;13.50;99.90;;;;;;5067947;28;19942;-77
2022/07/27 03:32:22;;;;;;;;;;;13.50;99.90;;;;;;5127130;28;20357;-76
2022/07/27 03:34:47;;;;;;;;;;;13.50;99.90;;;;;;5127303;28;19916;-76
2022/07/27 03:37:15;;;;;;;;;;;13.50;99.90;;;;;;5108365;28;19923;-77
2022/07/27 03:39:41;;;;;;;;;;;13.50;99.90;;;;;;5091991;28;19922;-77
2022/07/27 03:42:06;;;;;;;;;;;13.50;99.90;;;;;;5127208;28;19919;-76
2022/07/27 03:44:32;;;;;;;;;;;13.50;99.90;;;;;;5093364;28;19923;-77
2022/07/27 03:46:58;;;;;;;;;;;13.50;99.90;;;;;;5093903;28;19916;-76
2022/07/27 03:49:23;;;;;;;;;;;13.40;99.90;;;;;;5127592;27;19935;-76
2022/07/27 03:51:49;;;;;;;;;;;13.50;99.90;;;;;;5093679;28;20392;-76
2022/07/27 03:54:16;;;;;;;;;;;13.40;99.90;;;;;;5145124;27;20064;-76
2022/07/27 03:56:42;;;;;;;;;;;13.40;99.90;;;;;;5110278;28;19976;-76
2022/07/27 03:59:08;;;;;;;;;;;13.40;99.90;;;;;;5129436;27;20015;-77
2022/07/27 04:01:34;;;;;;;;;;;13.40;99.90;;;;;;5127069;27;20020;-76
2022/07/27 04:03:59;;;;;;;;;;;13.50;99.90;;;;;;5095750;28;19963;-77
2022/07/27 04:06:25;;;;;;;;;;;13.50;99.90;;;;;;5097432;28;19919;-77
2022/07/27 04:08:51;;;;;;;;;;;13.50;99.90;;;;;;5112889;27;19965;-71
2022/07/27 04:11:20;;;;;;;;;;;13.50;99.90;;;;;;5118724;27;19965;-70
2022/07/27 04:13:49;;;;;;;;;;;13.50;99.90;;;;;;5128251;27;20274;-70
2022/07/27 04:16:15;;;;;;;;;;;13.50;99.90;;;;;;5081052;28;20373;-71
2022/07/27 04:18:40;;;;;;;;;;;13.50;99.90;;;;;;5117383;27;19916;-71
2022/07/27 04:21:06;;;;;;;;;;;13.50;99.90;;;;;;5093765;27;19915;-71
2022/07/27 04:23:32;;;;;;;;;;;13.50;99.90;;;;;;5104163;28;19926;-71
2022/07/27 04:25:58;;;;;;;;;;;13.50;99.90;;;;;;5128028;27;19922;-70
2022/07/27 04:28:23;;;;;;;;;;;13.40;99.90;;;;;;5076630;28;20554;-71
2022/07/27 04:30:49;;;;;;;;;;;13.40;99.90;;;;;;5087855;28;19920;-74
2022/07/27 04:33:15;;;;;;;;;;;13.40;99.90;;;;;;5090335;28;19920;-70
2022/07/27 04:35:40;;;;;;;;;;;13.40;99.90;;;;;;5124778;27;19984;-70
2022/07/27 04:38:06;;;;;;;;;;;13.40;99.90;;;;;;5101739;27;19919;-70
2022/07/27 04:40:32;;;;;;;;;;;13.40;99.90;;;;;;5101044;28;20367;-70
2022/07/27 04:42:59;;;;;;;;;;;13.40;99.90;;;;;;5143939;27;19915;-70
2022/07/27 04:45:25;;;;;;;;;;;13.40;99.90;;;;;;5101035;28;19964;-70
2022/07/27 04:47:50;;;;;;;;;;;13.50;99.90;;;;;;5090875;28;19916;-70
2022/07/27 04:50:16;;;;;;;;;;;13.40;99.90;;;;;;5127817;27;19970;-70
2022/07/27 04:52:41;;;;;;;;;;;13.40;99.90;;;;;;5095217;28;19930;-70
2022/07/27 04:55:07;;;;;;;;;;;13.50;99.90;;;;;;5094318;27;19923;-70
2022/07/27 04:57:33;;;;;;;;;;;13.50;99.90;;;;;;5117866;27;19919;-70
2022/07/27 04:59:58;;;;;;;;;;;13.40;99.90;;;;;;5126056;27;20286;-71
2022/07/27 05:02:25;;;;;;;;;;;13.60;99.90;;;;;;5092289;28;19920;-71
2022/07/27 05:04:51;;;;;;;;;;;13.60;99.90;;;;;;5126498;27;19931;-71
2022/07/27 05:07:17;;;;;;;;;;;13.50;99.90;;;;;;5111825;28;20396;-71
2022/07/27 05:09:42;;;;;;;;;;;13.60;99.90;;;;;;5126807;27;19943;-70
2022/07/27 05:12:08;;;;;;;;;;;13.70;99.90;;;;;;5094702;28;19919;-71
2022/07/27 05:14:34;;;;;;;;;;;13.70;99.90;;;;;;5111778;28;19922;-70
2022/07/27 05:17:00;;;;;;;;;;;13.70;99.90;;;;;;5094311;28;20312;-70
2022/07/27 05:19:25;;;;;;;;;;;13.70;99.90;;;;;;5128368;27;19923;-71
2022/07/27 05:21:51;;;;;;;;;;;13.70;99.90;;;;;;5129740;27;20373;-70
2022/07/27 05:24:17;;;;;;;;;;;13.80;99.90;;;;;;5129200;27;19919;-71
2022/07/27 05:26:42;;;;;;;;;;;13.70;99.90;;;;;;5128994;27;20289;-70
2022/07/27 05:29:08;;;;;;;;;;;13.80;99.90;;;;;;5139352;27;19955;-70
2022/07/27 05:31:33;;;;;;;;;;;13.70;99.90;;;;;;5134270;27;19923;-72
2022/07/27 05:33:59;;;;;;;;;;;13.80;99.90;;;;;;5093898;27;19916;-72
2022/07/27 05:36:25;;;;;;;;;;;13.80;99.90;;;;;;5113112;27;19924;-72
2022/07/27 05:38:50;;;;;;;;;;;13.80;99.90;;;;;;5094279;28;19923;-71
2022/07/27 05:41:20;;;;;;;;;;;13.90;99.90;;;;;;5111157;28;20354;-71
2022/07/27 05:43:46;;;;;;;;;;;14.00;99.90;;;;;;5139265;27;19916;-71
2022/07/27 05:46:12;;;;;;;;;;;13.90;99.90;;;;;;5142000;27;19926;-71
2022/07/27 05:48:37;;;;;;;;;;;14.00;99.90;;;;;;5103393;27;19927;-71
2022/07/27 05:51:03;;;;;;;;;;;14.00;99.90;;;;;;5132327;27;19919;-71
2022/07/27 05:53:28;;;;;;;;;;;14.10;99.90;;;;;;5147806;27;19915;-71
2022/07/27 05:55:54;;;;;;;;;;;14.20;99.90;;;;;;5144480;27;19981;-71
2022/07/27 05:58:20;;;;;;;;;;;14.20;99.90;;;;;;5127624;27;19992;-71
2022/07/27 06:00:45;;;;;;;;;;;14.30;99.90;;;;;;5128688;27;20518;-71
2022/07/27 06:03:11;;;;;;;;;;;14.30;99.90;;;;;;5093395;28;20481;-71
2022/07/27 06:05:36;;;;;;;;;;;14.40;99.90;;;;;;5125690;27;20307;-71
2022/07/27 06:08:07;;;;;;;;;;;14.50;99.90;;;;;;5127116;27;19919;-71
2022/07/27 06:10:33;;;;;;;;;;;14.60;99.90;;;;;;5130924;27;20007;-71
2022/07/27 06:13:00;;;;;;;;;;;14.60;99.90;;;;;;5126148;27;19955;-71
2022/07/27 06:15:26;;;;;;;;;;;14.60;99.90;;;;;;5078368;27;19975;-71
2022/07/27 06:17:52;;;;;;;;;;;14.70;99.90;;;;;;5098168;28;19923;-71
2022/07/27 06:20:19;;;;;;;;;;;14.70;99.90;;;;;;5101545;27;19915;-71
2022/07/27 06:22:46;;;;;;;;;;;14.90;99.90;;;;;;5118626;27;19919;-71
2022/07/27 06:25:12;;;;;;;;;;;14.90;99.90;;;;;;5112091;27;20052;-71
2022/07/27 06:27:38;;;;;;;;;;;15.10;99.90;;;;;;5072693;28;20014;-71
2022/07/27 06:30:04;;;;;;;;;;;15.20;99.90;;;;;;5126535;27;19919;-71
2022/07/27 06:32:29;;;;;;;;;;;15.50;99.90;;;;;;5091695;28;19927;-72
2022/07/27 06:34:55;;;;;;;;;;;15.60;99.90;;;;;;5110065;27;19923;-71
2022/07/27 06:37:20;;;;;;;;;;;15.60;99.90;;;;;;5123092;27;19923;-70
2022/07/27 06:39:46;;;;;;;;;;;15.80;99.90;;;;;;5130179;27;19915;-71
2022/07/27 06:42:14;;;;;;;;;;;15.80;99.90;;;;;;5109488;27;19931;-71
2022/07/27 06:44:40;;;;;;;;;;;15.90;99.90;;;;;;5125283;27;19927;-71
2022/07/27 06:47:06;;;;;;;;;;;15.80;99.90;;;;;;5090687;28;19916;-71
2022/07/27 06:49:32;;;;;;;;;;;16.00;99.90;;;;;;5123745;27;19962;-70
2022/07/27 06:51:57;;;;;;;;;;;16.00;99.90;;;;;;5121295;27;20455;-70
2022/07/27 06:54:23;;;;;;;;;;;16.10;99.90;;;;;;5125611;27;19919;-70
2022/07/27 06:56:49;;;;;;;;;;;16.00;99.90;;;;;;5091841;27;19923;-70
2022/07/27 06:59:14;;;;;;;;;;;16.00;99.90;;;;;;5129617;27;19921;-71
2022/07/27 07:01:40;;;;;;;;;;;16.10;99.90;;;;;;5131623;27;19927;-71
2022/07/27 07:04:05;;;;;;;;;;;16.10;99.90;;;;;;5126760;27;19919;-71
2022/07/27 07:06:31;;;;;;;;;;;16.30;99.90;;;;;;5108295;28;19920;-71
2022/07/27 07:08:57;;;;;;;;;;;16.40;99.90;;;;;;5126041;27;19959;-71
2022/07/27 07:11:22;;;;;;;;;;;16.60;99.90;;;;;;5109436;27;19919;-71
2022/07/27 07:13:48;;;;;;;;;;;16.70;99.90;;;;;;5105553;28;19942;-70
2022/07/27 07:16:13;;;;;;;;;;;16.80;99.90;;;;;;5109114;28;19969;-70
2022/07/27 07:18:39;;;;;;;;;;;17.00;99.90;;;;;;5108811;28;20364;-71
2022/07/27 07:21:05;;;;;;;;;;;17.00;99.90;;;;;;5090845;28;19927;-71
2022/07/27 07:23:30;;;;;;;;;;;16.90;99.90;;;;;;5127422;28;20006;-71
2022/07/27 07:25:56;;;;;;;;;;;16.80;99.90;;;;;;5130621;27;20724;-71
2022/07/27 07:28:21;;;;;;;;;;;16.70;99.90;;;;;;5139457;27;20022;-71
2022/07/27 07:30:47;;;;;;;;;;;16.60;99.90;;;;;;5136290;27;19931;-72
2022/07/27 07:33:13;;;;;;;;;;;16.50;99.90;;;;;;5139882;27;19915;-71
2022/07/27 07:35:38;;;;;;;;;;;16.40;99.90;;;;;;5111871;28;19926;-72
2022/07/27 07:38:04;;;;;;;;;;;16.30;99.90;;;;;;5124717;27;20291;-71
2022/07/27 07:40:30;;;;;;;;;;;16.10;99.90;;;;;;5116918;27;19923;-71
2022/07/27 07:42:57;;;;;;;;;;;16.10;99.90;;;;;;5090907;28;19919;-71
2022/07/27 07:45:23;;;;;;;;;;;16.00;99.90;;;;;;5091793;28;19968;-71
2022/07/27 07:47:49;;;;;;;;;;;16.00;99.90;;;;;;5125940;28;19926;-71
2022/07/27 07:50:15;;;;;;;;;;;16.00;99.90;;;;;;5124068;27;19920;-71
2022/07/27 07:52:41;;;;;;;;;;;15.70;99.90;;;;;;5094353;28;20358;-71
2022/07/27 07:55:07;;;;;;;;;;;15.60;99.90;;;;;;5128610;27;19995;-71
2022/07/27 07:57:32;;;;;;;;;;;15.40;99.90;;;;;;5097458;28;20426;-71
2022/07/27 07:59:58;;;;;;;;;;;15.10;99.90;;;;;;5129141;27;19920;-71
2022/07/27 08:02:23;;;;;;;;;;;15.10;99.90;;;;;;5095851;28;19961;-71
2022/07/27 08:04:49;;;;;;;;;;;15.10;99.90;;;;;;5096464;28;19964;-71
2022/07/27 08:07:14;;;;;;;;;;;15.20;99.90;;;;;;5145241;27;19915;-71
2022/07/27 08:09:40;;;;;;;;;;;15.20;99.90;;;;;;5096443;27;19926;-71
2022/07/27 08:12:05;;;;;;;;;;;15.30;99.90;;;;;;5101979;27;20504;-71
2022/07/27 08:14:31;;;;;;;;;;;15.30;99.90;;;;;;5130051;27;19924;-71
2022/07/27 08:16:57;;;;;;;;;;;15.40;99.90;;;;;;5093999;28;19928;-72
2022/07/27 08:19:23;;;;;;;;;;;15.40;99.90;;;;;;5096041;27;19915;-72
2022/07/27 08:21:48;;;;;;;;;;;15.40;99.90;;;;;;5123065;27;19952;-72
2022/07/27 08:24:14;;;;;;;;;;;15.40;99.90;;;;;;5091090;28;20008;-72
2022/07/27 08:26:39;;;;;;;;;;;15.40;99.90;;;;;;5116920;27;19916;-71
2022/07/27 08:29:05;;;;;;;;;;;15.50;99.90;;;;;;5093860;28;20785;-71
2022/07/27 08:31:30;;;;;;;;;;;15.60;99.90;;;;;;5095386;28;19923;-71
2022/07/27 08:33:56;;;;;;;;;;;15.70;99.90;;;;;;5128934;27;19931;-71
2022/07/27 08:36:21;;;;;;;;;;;15.90;99.90;;;;;;5111796;27;20006;-71
2022/07/27 08:38:47;;;;;;;;;;;15.90;99.90;;;;;;5093245;27;19943;-71
2022/07/27 08:41:14;;;;;;;;;;;16.10;99.90;;;;;;5128500;27;19972;-70
2022/07/27 08:43:41;;;;;;;;;;;16.10;99.90;;;;;;5127328;27;19993;-71
2022/07/27 08:46:08;;;;;;;;;;;16.10;99.90;;;;;;5138631;27;20389;-71
2022/07/27 08:48:34;;;;;;;;;;;16.40;99.90;;;;;;5148940;27;20280;-70
2022/07/27 08:51:00;;;;;;;;;;;16.40;99.90;;;;;;5126075;27;19926;-71
2022/07/27 08:53:29;;;;;;;;;;;16.40;99.90;;;;;;5128928;27;20346;-70
2022/07/27 08:55:56;;;;;;;;;;;16.50;99.90;;;;;;5093102;28;19973;-71
2022/07/27 08:58:21;;;;;;;;;;;16.60;99.90;;;;;;5095538;28;19942;-70
2022/07/27 09:00:48;;;;;;;;;;;16.80;99.90;;;;;;5109311;27;20406;-71
2022/07/27 09:03:15;;;;;;;;;;;16.90;99.90;;;;;;5112382;27;19937;-71
2022/07/27 09:05:42;;;;;;;;;;;17.10;99.90;;;;;;5121415;27;19926;-71
2022/07/27 09:08:12;;;;;;;;;;;17.30;99.90;;;;;;5079888;28;20297;-71
2022/07/27 09:10:37;;;;;;;;;;;17.50;99.90;;;;;;5095162;28;19926;-71
2022/07/27 09:13:20;;;;;;;;;;;17.50;99.90;;;;;;5094571;28;19920;-71
2022/07/27 09:15:50;;;;;;;;;;;17.60;99.90;;;;;;5095337;28;19923;-70
2022/07/27 09:18:17;;;;;;;;;;;17.80;99.90;;;;;;5097160;27;19973;-72
2022/07/27 09:20:43;;;;;;;;;;;17.90;99.90;;;;;;5129300;27;20380;-71
2022/07/27 09:23:08;;;;;;;;;;;18.20;99.90;;;;;;5129075;27;19915;-71
2022/07/27 09:25:36;;;;;;;;;;;18.50;99.90;;;;;;5079744;28;19916;-71
2022/07/27 09:28:02;;;;;;;;;;;18.50;99.90;;;;;;5116177;27;19920;-71
2022/07/27 09:30:28;;;;;;;;;;;18.30;99.90;;;;;;5141214;27;19923;-72
2022/07/27 09:33:02;;;;;;;;;;;18.40;98.90;;;;;;5097293;28;19927;-71
2022/07/27 09:35:35;;;;;;;;;;;18.30;99.80;;;;;;5136788;27;19915;-71
2022/07/27 09:38:19;;;;;;;;;;;18.30;96.80;;;;;;5139034;27;19968;-71
2022/07/27 09:40:46;;;;;;;;;;;18.40;96.50;;;;;;5113746;27;20366;-71
2022/07/27 09:43:12;;;;;;;;;;;18.30;98.90;;;;;;5107765;27;19927;-71
2022/07/27 09:45:42;;;;;;;;;;;18.20;96.10;;;;;;5114729;27;19955;-71
2022/07/27 09:48:17;;;;;;;;;;;18.10;95.70;;;;;;5149849;27;19919;-71
2022/07/27 09:50:58;;;;;;;;;;;18.30;96.30;;;;;;5110327;27;19992;-71
2022/07/27 09:53:28;;;;;;;;;;;18.40;96.50;;;;;;5126467;27;19922;-71
2022/07/27 09:55:57;;;;;;;;;;;18.20;95.50;;;;;;5124240;27;20337;-71
2022/07/27 09:58:42;;;;;;;;;;;18.30;95.20;;;;;;5092369;28;20396;-71
2022/07/27 10:01:09;;;;;;;;;;;18.50;97.00;;;;;;5084008;28;19927;-72
2022/07/27 10:03:35;;;;;;;;;;;18.50;96.40;;;;;;5106202;27;19923;-72
2022/07/27 10:06:00;;;;;;;;;;;18.60;97.80;;;;;;5070464;28;19931;-71
2022/07/27 10:08:26;;;;;;;;;;;18.80;96.70;;;;;;5118026;27;19926;-71
2022/07/27 10:10:52;;;;;;;;;;;18.80;96.50;;;;;;5091665;28;19919;-71
2022/07/27 10:13:18;;;;;;;;;;;18.70;97.30;;;;;;5097045;27;19936;-72
2022/07/27 10:15:43;;;;;;;;;;;18.60;95.80;;;;;;5134388;27;19926;-72
2022/07/27 10:18:13;;;;;;;;;;;18.90;96.70;;;;;;5127487;27;19932;-72
2022/07/27 10:20:41;;;;;;;;;;;19.10;95.50;;;;;;5088059;27;20390;-72
2022/07/27 10:23:07;;;;;;;;;;;19.00;94.60;;;;;;5078211;27;19920;-72
2022/07/27 10:25:33;;;;;;;;;;;19.10;96.10;;;;;;5101041;28;19915;-71
2022/07/27 10:28:13;;;;;;;;;;;18.70;95.00;;;;;;5075170;27;19976;-71
2022/07/27 10:30:39;;;;;;;;;;;18.40;94.70;;;;;;5090973;28;19961;-75
2022/07/27 10:33:15;;;;;;;;;;;18.20;95.40;;;;;;5098697;27;19919;-76
2022/07/27 10:35:41;;;;;;;;;;;18.10;95.50;;;;;;5082908;28;19930;-75
2022/07/27 10:38:11;;;;;;;;;;;18.10;95.70;;;;;;5093915;28;19915;-74
2022/07/27 10:40:37;;;;;;;;;;;18.10;96.60;;;;;;5094273;28;19969;-74
2022/07/27 10:43:08;;;;;;;;;;;18.10;95.70;;;;;;5128018;27;19919;-74
2022/07/27 10:45:37;;;;;;;;;;;18.10;95.70;;;;;;5093662;28;19916;-75
2022/07/27 10:48:03;;;;;;;;;;;18.10;95.00;;;;;;5093751;28;20011;-74
2022/07/27 10:50:29;;;;;;;;;;;18.10;96.20;;;;;;5094150;28;20006;-74
2022/07/27 10:52:59;;;;;;;;;;;18.30;94.70;;;;;;5093642;28;20404;-75
2022/07/27 10:55:31;;;;;;;;;;;18.30;95.20;;;;;;5093643;28;19963;-75
2022/07/27 10:57:56;;;;;;;;;;;18.50;95.40;;;;;;5093818;28;20007;-74
2022/07/27 11:00:41;;;;;;;;;;;19.00;93.60;;;;;;5127863;27;20374;-74
2022/07/27 11:03:07;;;;;;;;;;;19.50;94.00;;;;;;5128152;27;20276;-74
2022/07/27 11:05:33;;;;;;;;;;;20.20;93.40;;;;;;5093918;28;19920;-74
2022/07/27 11:07:58;;;;;;;;;;;19.90;93.30;;;;;;5093557;28;20285;-75
2022/07/27 11:10:26;;;;;;;;;;;19.40;92.80;;;;;;5110522;28;19922;-75
2022/07/27 11:12:52;;;;;;;;;;;19.20;94.00;;;;;;5110376;28;20335;-75
2022/07/27 11:15:17;;;;;;;;;;;19.00;94.60;;;;;;5093274;28;19919;-75
2022/07/27 11:17:48;;;;;;;;;;;19.50;95.00;;;;;;5076469;28;19919;-74
2022/07/27 11:20:13;;;;;;;;;;;19.80;92.80;;;;;;5093351;28;19919;-74
2022/07/27 11:22:39;;;;;;;;;;;19.60;93.40;;;;;;5127544;28;20002;-74
2022/07/27 11:25:06;;;;;;;;;;;19.20;93.40;;;;;;5127357;28;19919;-74
2022/07/27 11:27:31;;;;;;;;;;;18.80;94.20;;;;;;5093394;28;19915;-75
2022/07/27 11:29:57;;;;;;;;;;;18.70;94.60;;;;;;5080914;28;19927;-75
2022/07/27 11:32:23;;;;;;;;;;;18.50;95.30;;;;;;5131897;27;19920;-75
2022/07/27 11:34:49;;;;;;;;;;;18.50;95.70;;;;;;5097935;28;19923;-74
2022/07/27 11:37:19;;;;;;;;;;;18.40;95.60;;;;;;5131444;27;19927;-74
2022/07/27 11:39:45;;;;;;;;;;;18.60;96.00;;;;;;5132084;27;20332;-73
2022/07/27 11:42:12;;;;;;;;;;;19.10;95.50;;;;;;5131821;27;19946;-74
2022/07/27 11:44:38;;;;;;;;;;;18.90;94.80;;;;;;5080800;28;20357;-74
2022/07/27 11:47:04;;;;;;;;;;;18.90;95.30;;;;;;5097366;28;19919;-74
2022/07/27 11:49:31;;;;;;;;;;;18.80;95.90;;;;;;5094161;28;19926;-74
2022/07/27 11:52:01;;;;;;;;;;;18.70;95.70;;;;;;5111169;28;19920;-74
2022/07/27 11:54:28;;;;;;;;;;;18.70;95.20;;;;;;5111009;28;19916;-74
2022/07/27 11:56:58;;;;;;;;;;;18.70;95.70;;;;;;5127586;27;19924;-74
2022/07/27 11:59:28;;;;;;;;;;;18.60;94.90;;;;;;5129005;27;20389;-74
2022/07/27 12:01:55;;;;;;;;;;;18.60;95.20;;;;;;5097471;28;19919;-74
2022/07/27 12:04:28;;;;;;;;;;;18.80;96.00;;;;;;5080141;28;19994;-74
2022/07/27 12:06:54;;;;;;;;;;;19.10;95.30;;;;;;5096963;28;20389;-74
2022/07/27 12:09:19;;;;;;;;;;;19.10;95.60;;;;;;5097003;28;19915;-74
2022/07/27 12:11:48;;;;;;;;;;;19.10;96.60;;;;;;5094717;28;19923;-74
2022/07/27 12:14:17;;;;;;;;;;;19.10;95.70;;;;;;5089461;27;20028;-74
2022/07/27 12:16:44;;;;;;;;;;;19.20;96.40;;;;;;5112289;27;19962;-74
2022/07/27 12:19:09;;;;;;;;;;;19.50;95.00;;;;;;5127795;27;19966;-74
2022/07/27 12:21:35;;;;;;;;;;;19.40;94.80;;;;;;5130302;27;19959;-74
2022/07/27 12:24:00;;;;;;;;;;;19.40;95.30;;;;;;5113747;27;20002;-75
2022/07/27 12:26:26;;;;;;;;;;;19.30;95.10;;;;;;5112164;28;19916;-75
2022/07/27 12:29:08;;;;;;;;;;;19.30;95.50;;;;;;5105008;27;19966;-74
2022/07/27 12:31:34;;;;;;;;;;;19.60;95.40;;;;;;5085175;28;19988;-75
2022/07/27 12:34:01;;;;;;;;;;;19.80;95.00;;;;;;5122460;27;19919;-75
2022/07/27 12:36:27;;;;;;;;;;;19.90;95.40;;;;;;5096179;28;19966;-74
2022/07/27 12:38:52;;;;;;;;;;;19.70;94.60;;;;;;5132465;27;19975;-74
2022/07/27 12:41:22;;;;;;;;;;;19.50;94.90;;;;;;5098587;27;19920;-74
2022/07/27 12:44:02;;;;;;;;;;;19.30;94.50;;;;;;5118671;27;19964;-74
2022/07/27 12:46:28;;;;;;;;;;;19.10;95.30;;;;;;5078669;28;19961;-74
2022/07/27 12:48:53;;;;;;;;;;;19.10;94.90;;;;;;5129865;27;19919;-75
2022/07/27 12:51:20;;;;;;;;;;;19.00;95.40;;;;;;5095280;28;19915;-75
2022/07/27 12:53:46;;;;;;;;;;;18.90;95.40;;;;;;5121040;27;19916;-75
2022/07/27 12:56:12;;;;;;;;;;;19.00;95.70;;;;;;5127994;27;19931;-75
2022/07/27 12:58:38;;;;;;;;;;;18.80;94.80;;;;;;5131995;27;19916;-74
2022/07/27 13:01:04;;;;;;;;;;;19.00;94.80;;;;;;5127328;27;20007;-74
2022/07/27 13:03:30;;;;;;;;;;;19.20;95.30;;;;;;5102608;27;20451;-74
2022/07/27 13:05:55;;;;;;;;;;;19.30;94.50;;;;;;5093234;28;19926;-74
2022/07/27 13:08:21;;;;;;;;;;;19.20;94.50;;;;;;5094978;28;19923;-74
2022/07/27 13:10:48;;;;;;;;;;;19.10;95.00;;;;;;5083550;27;20337;-74
2022/07/27 13:13:14;;;;;;;;;;;19.10;94.70;;;;;;5095724;28;19923;-74
2022/07/27 13:15:40;;;;;;;;;;;19.20;95.20;;;;;;5093868;28;19916;-73
2022/07/27 13:18:05;;;;;;;;;;;19.50;94.90;;;;;;5095698;28;20378;-74
2022/07/27 13:20:31;;;;;;;;;;;19.80;95.00;;;;;;5129081;27;19915;-73
2022/07/27 13:22:57;;;;;;;;;;;19.90;94.50;;;;;;5129887;27;19920;-73
2022/07/27 13:25:22;;;;;;;;;;;20.10;94.70;;;;;;5095541;28;19920;-73
2022/07/27 13:27:48;;;;;;;;;;;20.00;95.00;;;;;;5094543;28;19915;-73
2022/07/27 13:30:15;;;;;;;;;;;19.70;95.10;;;;;;5129661;27;19958;-73
2022/07/27 13:32:41;;;;;;;;;;;19.50;95.20;;;;;;5094973;28;19924;-73
2022/07/27 13:35:07;;;;;;;;;;;19.50;95.30;;;;;;5078790;28;19938;-73
2022/07/27 13:37:33;;;;;;;;;;;19.30;94.90;;;;;;5093969;28;19931;-73
2022/07/27 13:39:58;;;;;;;;;;;19.30;95.80;;;;;;5115830;27;19923;-73
2022/07/27 13:42:24;;;;;;;;;;;19.30;95.50;;;;;;5092146;28;19922;-73
2022/07/27 13:44:50;;;;;;;;;;;19.40;95.40;;;;;;5093775;28;19919;-74
2022/07/27 13:47:16;;;;;;;;;;;19.10;95.00;;;;;;5094480;28;19970;-74
2022/07/27 13:49:42;;;;;;;;;;;19.00;94.60;;;;;;5108748;27;19923;-74
2022/07/27 13:52:08;;;;;;;;;;;18.90;95.20;;;;;;5101560;27;19968;-75
2022/07/27 13:54:34;;;;;;;;;;;18.90;95.90;;;;;;5103269;27;19919;-74
2022/07/27 13:56:59;;;;;;;;;;;18.90;96.10;;;;;;5110234;28;19934;-74
2022/07/27 13:59:25;;;;;;;;;;;19.00;95.60;;;;;;5133416;27;20289;-74
2022/07/27 14:01:51;;;;;;;;;;;19.00;95.10;;;;;;5135541;27;19955;-74
2022/07/27 14:04:17;;;;;;;;;;;19.10;95.60;;;;;;5085281;27;20290;-74
2022/07/27 14:06:43;;;;;;;;;;;19.20;95.20;;;;;;5144028;27;20073;-73
2022/07/27 14:09:09;;;;;;;;;;;19.20;95.50;;;;;;5093357;28;19923;-74
2022/07/27 14:11:35;;;;;;;;;;;19.20;95.00;;;;;;5130308;27;19932;-74
2022/07/27 14:14:01;;;;;;;;;;;19.10;94.60;;;;;;5127044;27;20413;-74